Ride Results

Eddington Endurance Ride (03-04-2015)
Ride distance: 105.0 km Elevator

Outcomes - Eddington Endurance Ride (03-04-2015)
Division No. of Entries Retired / DNE Completed Withdrawn Ineligible V/O Percentage Completed
HW 5 - 3 1 - 1 60.00%
MW 26 13 9 2 - 2 84.62%
LW 14 9 1 1 - 3 71.43%
JN 1 - 1 - - - 100.00%
Totals 46 22 14 4 - 6 78.26%
Results - Eddington Endurance Ride (03-04-2015)
No. Rider Horse Place Time Leg Speeds Total
Km/Hr
H/R bpm
Heavyweight
135 Tamara Atkinson Mathoura McKinlay 1 (BC) 7:47:00 15.0, 13.3, 11.5 13.49 44, 46, 53, 45 (Avg:48)
76 Russell Robinson Jayay Alishah 2 8:05:00 12.8, 13.5, 12.4 12.99 35, 41, 45, 40 (Avg:42)
259 Wendy Lightowler Kalatha Park Shahraz 3 8:39:00 14.9, 13.3, 8.2 12.14 32, 39, 39, 39 (Avg:39)
197 Dennis Moore Boss Lame L2 0:00:00 12.4, 13.2 - 36, 50, 45 (Avg:47)
233h Frank Cullen Chappy Withdrawn L1 0:00:00 - - 41, 46 (Avg:46)
Middleweight
351 Steve Blackhurst Weerina Arabian Princess 1 6:31:00 16.1, 15.8, 16.4 16.11 30, 40, 43, 42 (Avg:41)
126 Wendy Riha Castlebar Chivas 2 (BC) 6:34:25 15.1, 16.1, 17.3 15.97 35, 44, 45, 43 (Avg:44)
44 Vanessa Smith Dunbraeton Narla 2 6:34:25 15.1, 16.1, 17.3 15.97 40, 41, 45, 48 (Avg:44)
233 Paul Bryson Alhambra Latiffe 4 7:33:00 15.4, 13.4, 12.2 13.91 34, 41, 45, 51 (Avg:45)
42 Hans Peuker Marybank Celia 5 7:47:00 15.0, 13.3, 11.5 13.49 30, 42, 48, 44 (Avg:44)
273 Georgie Hart Dejarn Khan 6 8:19:00 12.4, 13.2, 12.0 12.63 31, 44, 46, 45 (Avg:45)
253 Kerri Hart Mullungdung Blue Belle 7 8:33:00 11.7, 14.4, 10.8 12.28 44, 44, 47, 46 (Avg:45)
192 Tabitha Verspaandonk Moulin Rouge 7 8:33:00 11.7, 14.4, 10.8 12.28 38, 41, 49, 42 (Avg:44)
195 Nikita Verspaandonk Eminem Phairow 9 9:05:30 11.7, 11.2, 11.5 11.55 40, 45, 44, 41 (Avg:43)
17 Sallyann Duke Ramigil Sapphyre Retired/DNE L2 6:05:00 12.5, 13.9 13.15 42, 43, 46 (Avg:44)
759 Rebecca Jeffrey AragonnMG Retired/DNE L2 6:05:00 13.2, 13.0 13.15 36, 45, 45 (Avg:45)
160 Jo-Anne Francis Sierra Lodge Camelot Retired/DNE L2 6:07:00 12.5, 13.8 13.08 37, 41, 44 (Avg:42)
286 Jason Rathbone Timbertop All That Jazz Retired/DNE L2 6:19:25 13.2, 11.9 12.65 36, 39, 38 (Avg:38)
23 Brittnee Smith Timbertop Golden Fantasy Retired/DNE L2 6:19:25 13.2, 11.9 12.65 28, 43, 40 (Avg:41)
757 Robyn Player Canala Aramis Retired/DNE L2 6:44:30 12.2, 11.4 11.87 37, 41, 45 (Avg:43)
189 Sally Cowan Willabee Park Ackwell Retired/DNE L2 6:48:00 10.6, 13.6 11.76 48, 44, 58 (Avg:51)
131 Simon Thomas Morundah Just Sharii Retired/DNE L2 7:17:00 10.8, 11.1 10.98 35, 40, 47 (Avg:43)
285 Clint Cowan Waitara Whipawee Retired/DNE L2 7:24:10 10.6, 11.0 10.81 54, 50, 50 (Avg:50)
181 Sharee Court Makaveli Soulja Retired/DNE L2 7:25:50 10.8, 10.6 10.77 39, 47, 48 (Avg:47)
89 Sheryl Herbert Krishlah Maleeka Retired/DNE L2 7:25:50 10.8, 10.6 10.77 44, 44, 47 (Avg:45)
758 Jessica Remfry Slipstream Shalom Retired/DNE L2 7:25:50 10.8, 10.6 10.77 42, 48, 50 (Avg:49)
257 Tanya Beacham Creswick Magdaleenah Retired/DNE L2 7:39:00 10.3, 10.5 10.46 36, 40, 40 (Avg:40)
254 Danielle Griffin Castle Downs Challenge Lame L3 0:00:00 14.9, 13.3, 8.2 - 35, 43, 46, 48 (Avg:45)
238 Kerri Kingston Mytkyina Withdrawn L1 0:00:00 - - 39, 43 (Avg:43)
53 Beverley Rayner-Mason Ainslie Ribbon Lame L1 0:00:00 15.0 - 40, 50 (Avg:50)
6 Julie Woods Pyrenees Kaleb Withdrawn L1 0:00:00 - - 42, 52 (Avg:52)
Lightweight
244 Marty Bryson Castlebar Shatan 1 (BC) 7:33:00 15.4, 13.4, 12.2 13.91 35, 39, 39, 40 (Avg:39)
245 Melinda Stevens John Snow Retired/DNE L2 5:20:40 14.9, 14.9 14.97 28, 38, 45 (Avg:41)
751 Lisa Sheahan Scout Retired/DNE L2 6:05:00 13.2, 13.0 13.15 40, 48, 55 (Avg:51)
746 Hussein Al Assadi Shemaih Sparkling Arrow Retired/DNE L2 6:13:20 12.8, 12.8 12.86 40, 47, 50 (Avg:48)
744 Amanda Smith Cougar Swan Dixie Retired/DNE L2 6:15:00 12.4, 13.2 12.80 51, 50, 49 (Avg:49)
217 Tanya Perry Windradyne Hot Pepper Retired/DNE L2 6:22:25 13.2, 11.7 12.55 42, 44, 46 (Avg:45)
748 Rebecca Williamson Keysha Lovica Retired/DNE L2 6:22:25 13.2, 11.7 12.55 33, 42, 44 (Avg:43)
203 Charlotte Plews Rocky Point Blue Kyanite Retired/DNE L2 7:17:00 10.8, 11.1 10.98 46, 40, 42 (Avg:41)
742 Nicole Porter Rocky Point Black Xanthanite Retired/DNE L2 7:17:00 10.8, 11.1 10.98 45, 48, 50 (Avg:49)
61 Lois Sharam Musical Gully Carousel Retired/DNE L2 7:39:00 10.3, 10.5 10.46 37, 44, 52 (Avg:48)
747 Jayne Rathbone Waitara Milo Lame L2 0:00:00 10.6, 11.0 - 32, 42, 46 (Avg:44)
11 Rohan Stanes Zharion Heart Rate L1 0:00:00 14.9 - 41, 59 (Avg:59)
278 Gina Thompson Bellarine Rosebud Lame L1 0:00:00 16.1 - 25, 39 (Avg:39)
151 Kasey Thomas Rocky Point Black Sardonyx Withdrawn P/R 0:00:00 - - 56
Junior
262 Bonnie Player Quartz Hill Farm Eragon 1 (BC) 9:01:00 12.2, 11.4, 10.9 11.65 45, 44, 48, 47 (Avg:46)